Time,TemperatureF,DewpointF,PressureIn,WindDirection,WindDirectionDegrees,WindSpeedMPH,WindSpeedGustMPH,Humidity,HourlyPrecipIn,Conditions,Clouds,dailyrainin,SoftwareType,DateUTC
2013-07-04 00:01:00,71.0,70.4,30.25,SSW,204,2.0,2.0,98,0.00,,FEW007,0.00,VWS V14.01,2013-07-04 04:01:00,
2013-07-04 00:06:00,70.7,70.4,30.25,SSW,204,1.0,1.0,99,0.00,,CLR,0.00,VWS V14.01,2013-07-04 04:06:00,
2013-07-04 00:11:00,70.6,70.0,30.25,South,172,2.0,3.0,98,0.00,,CLR,0.00,VWS V14.01,2013-07-04 04:11:00,
2013-07-04 00:16:00,70.6,70.3,30.25,South,172,1.0,1.0,99,0.00,,CLR,0.00,VWS V14.01,2013-07-04 04:16:00,
2013-07-04 00:21:00,70.6,70.3,30.24,South,172,1.0,2.0,99,0.00,,CLR,0.00,VWS V14.01,2013-07-04 04:21:00,
2013-07-04 00:26:00,70.6,70.3,30.24,South,172,1.0,2.0,99,0.00,,CLR,0.00,VWS V14.01,2013-07-04 04:26:00,
2013-07-04 00:31:00,70.6,70.3,30.24,South,172,1.0,2.0,99,0.00,,CLR,0.00,VWS V14.01,2013-07-04 04:31:00,
2013-07-04 00:36:00,70.6,70.3,30.25,South,172,2.0,3.0,99,0.00,,CLR,0.00,VWS V14.01,2013-07-04 04:36:00,
2013-07-04 00:41:00,70.6,70.3,30.24,SE,139,5.0,5.0,99,0.00,,CLR,0.00,VWS V14.01,2013-07-04 04:41:00,
2013-07-04 00:46:00,70.6,70.3,30.24,SW,221,4.0,4.0,99,0.00,,CLR,0.00,VWS V14.01,2013-07-04 04:46:00,
2013-07-04 00:51:00,70.6,70.3,30.25,South,169,1.0,4.0,99,0.00,,CLR,0.00,VWS V14.01,2013-07-04 04:51:00,
2013-07-04 00:56:00,70.6,70.6,30.24,SW,219,1.0,3.0,100,0.00,,CLR,0.00,VWS V14.01,2013-07-04 04:56:00,
2013-07-04 01:01:00,70.6,70.6,30.24,South,189,1.0,4.0,100,0.00,,CLR,0.00,VWS V14.01,2013-07-04 05:01:00,
2013-07-04 01:06:00,70.6,70.3,30.24,SSE,158,2.0,4.0,99,0.00,,CLR,0.00,VWS V14.01,2013-07-04 05:06:00,
2013-07-04 01:11:00,70.6,70.6,30.25,SW,215,0.0,7.0,100,0.00,,CLR,0.00,VWS V14.01,2013-07-04 05:11:00,
2013-07-04 01:16:00,70.6,70.6,30.24,SW,218,3.0,4.0,100,0.00,,CLR,0.00,VWS V14.01,2013-07-04 05:16:00,
2013-07-04 01:21:00,70.6,70.6,30.24,SSW,207,3.0,5.0,100,0.00,,CLR,0.00,VWS V14.01,2013-07-04 05:21:00,
2013-07-04 01:26:00,70.6,70.6,30.24,South,186,1.0,6.0,100,0.00,,CLR,0.00,VWS V14.01,2013-07-04 05:26:00,
2013-07-04 01:31:00,70.6,70.6,30.24,South,181,0.0,3.0,100,0.00,,CLR,0.00,VWS V14.01,2013-07-04 05:31:00,
2013-07-04 01:36:00,70.6,70.6,30.24,South,175,1.0,3.0,100,0.00,,CLR,0.00,VWS V14.01,2013-07-04 05:36:00,
2013-07-04 01:41:00,70.4,70.4,30.24,South,176,1.0,4.0,100,0.00,,CLR,0.00,VWS V14.01,2013-07-04 05:41:00,
2013-07-04 01:46:00,70.4,70.4,30.24,WSW,248,1.0,5.0,100,0.00,,CLR,0.00,VWS V14.01,2013-07-04 05:46:00,
2013-07-04 01:51:00,70.4,70.4,30.24,SSE,153,1.0,2.0,100,0.00,,CLR,0.00,VWS V14.01,2013-07-04 05:51:00,
2013-07-04 01:56:00,70.4,70.4,30.23,SSE,152,1.0,2.0,100,0.00,,CLR,0.00,VWS V14.01,2013-07-04 05:56:00,
2013-07-04 02:01:00,70.2,70.2,30.24,SW,215,1.0,2.0,100,0.00,,CLR,0.00,VWS V14.01,2013-07-04 06:01:00,
2013-07-04 02:06:00,70.3,70.3,30.23,SSW,213,0.0,0.0,100,0.00,,CLR,0.00,VWS V14.01,2013-07-04 06:06:00,
2013-07-04 02:11:00,70.3,70.3,30.23,SW,217,1.0,5.0,100,0.00,,CLR,0.00,VWS V14.01,2013-07-04 06:11:00,
2013-07-04 02:16:00,70.3,70.3,30.23,SSW,198,1.0,1.0,100,0.00,,CLR,0.00,VWS V14.01,2013-07-04 06:16:00,
2013-07-04 02:21:00,70.3,70.3,30.23,SSW,208,0.0,3.0,100,0.00,,CLR,0.00,VWS V14.01,2013-07-04 06:21:00,
2013-07-04 02:26:00,70.3,70.3,30.23,SSW,207,0.0,2.0,100,0.00,,CLR,0.00,VWS V14.01,2013-07-04 06:26:00,
2013-07-04 02:31:00,70.2,70.2,30.23,SSW,199,3.0,4.0,100,0.00,,CLR,0.00,VWS V14.01,2013-07-04 06:31:00,
2013-07-04 02:36:00,70.3,70.3,30.23,SSW,198,1.0,3.0,100,0.00,,CLR,0.00,VWS V14.01,2013-07-04 06:36:00,
2013-07-04 02:41:00,70.3,70.3,30.23,South,177,2.0,5.0,100,0.00,,CLR,0.00,VWS V14.01,2013-07-04 06:41:00,
2013-07-04 02:46:00,70.3,70.3,30.23,South,177,2.0,3.0,100,0.00,,CLR,0.00,VWS V14.01,2013-07-04 06:46:00,
2013-07-04 02:51:00,70.3,70.0,30.23,SW,230,1.0,2.0,99,0.00,,CLR,0.00,VWS V14.01,2013-07-04 06:51:00,
2013-07-04 02:56:00,70.2,69.9,30.23,SSW,195,0.0,3.0,99,0.00,,CLR,0.00,VWS V14.01,2013-07-04 06:56:00,
2013-07-04 03:01:00,70.5,70.2,30.23,SSW,193,0.0,4.0,99,0.00,,CLR,0.00,VWS V14.01,2013-07-04 07:01:00,
2013-07-04 03:06:00,70.2,69.9,30.23,SSW,194,1.0,3.0,99,0.00,,CLR,0.00,VWS V14.01,2013-07-04 07:06:00,
2013-07-04 03:11:00,70.3,70.3,30.23,SSW,202,0.0,1.0,100,0.00,,CLR,0.00,VWS V14.01,2013-07-04 07:11:00,
2013-07-04 03:16:00,70.2,69.9,30.23,SSW,196,1.0,5.0,99,0.00,,CLR,0.00,VWS V14.01,2013-07-04 07:16:00,
2013-07-04 03:21:00,70.2,69.9,30.23,SSW,196,1.0,2.0,99,0.00,,CLR,0.00,VWS V14.01,2013-07-04 07:21:00,
2013-07-04 03:26:00,70.3,70.0,30.23,SSW,196,0.0,3.0,99,0.00,,CLR,0.00,VWS V14.01,2013-07-04 07:26:00,
2013-07-04 03:31:00,70.3,70.0,30.23,SSW,196,1.0,3.0,99,0.00,,CLR,0.00,VWS V14.01,2013-07-04 07:31:00,
2013-07-04 03:36:00,70.3,70.0,30.23,SW,223,2.0,5.0,99,0.00,,CLR,0.00,VWS V14.01,2013-07-04 07:36:00,
2013-07-04 03:41:00,70.3,70.0,30.23,SW,232,0.0,2.0,99,0.00,,CLR,0.00,VWS V14.01,2013-07-04 07:41:00,
2013-07-04 03:46:00,70.2,70.2,30.23,SW,235,3.0,6.0,100,0.00,,CLR,0.00,VWS V14.01,2013-07-04 07:46:00,
2013-07-04 03:51:00,70.4,70.4,30.23,SSW,208,1.0,3.0,100,0.00,,CLR,0.00,VWS V14.01,2013-07-04 07:51:00,
2013-07-04 03:56:00,70.4,70.1,30.23,SW,232,1.0,4.0,99,0.00,,CLR,0.00,VWS V14.01,2013-07-04 07:56:00,
2013-07-04 04:01:00,70.4,70.1,30.23,SW,232,1.0,2.0,99,0.00,,CLR,0.00,VWS V14.01,2013-07-04 08:01:00,
2013-07-04 04:06:00,70.4,70.1,30.23,SSW,207,4.0,4.0,99,0.00,,BKN008,0.00,VWS V14.01,2013-07-04 08:06:00,
2013-07-04 04:11:00,70.4,70.4,30.23,SSW,207,0.0,2.0,100,0.00,,BKN008,0.00,VWS V14.01,2013-07-04 08:11:00,
2013-07-04 04:16:00,70.4,70.4,30.23,SW,217,3.0,3.0,100,0.00,,BKN008,0.00,VWS V14.01,2013-07-04 08:16:00,
2013-07-04 04:21:00,70.4,70.4,30.23,West,276,2.0,2.0,100,0.00,,BKN008,0.00,VWS V14.01,2013-07-04 08:21:00,
2013-07-04 04:26:00,70.4,70.4,30.23,SW,218,1.0,1.0,100,0.00,,BKN008,0.00,VWS V14.01,2013-07-04 08:26:00,
2013-07-04 04:31:00,70.4,70.4,30.23,SW,217,2.0,3.0,100,0.00,,BKN008,0.00,VWS V14.01,2013-07-04 08:31:00,
2013-07-04 04:36:00,70.6,70.6,30.24,SSW,210,0.0,2.0,100,0.00,,BKN008,0.00,VWS V14.01,2013-07-04 08:36:00,
2013-07-04 04:41:00,70.6,70.6,30.24,SSW,205,0.0,2.0,100,0.00,,BKN008,0.00,VWS V14.01,2013-07-04 08:41:00,
2013-07-04 04:46:00,70.6,70.6,30.24,SSW,205,2.0,2.0,100,0.00,,BKN008,0.00,VWS V14.01,2013-07-04 08:46:00,
2013-07-04 04:51:00,70.6,70.6,30.24,SSW,207,5.0,5.0,100,0.00,,BKN008,0.00,VWS V14.01,2013-07-04 08:51:00,
2013-07-04 04:56:00,70.7,70.7,30.24,SSW,196,0.0,0.0,100,0.00,,BKN008,0.00,VWS V14.01,2013-07-04 08:56:00,
2013-07-04 05:01:00,70.7,70.7,30.24,SSW,197,0.0,2.0,100,0.00,,BKN008,0.00,VWS V14.01,2013-07-04 09:01:00,
2013-07-04 05:06:00,70.7,70.7,30.24,SSW,197,0.0,2.0,100,0.00,,BKN008,0.00,VWS V14.01,2013-07-04 09:06:00,
2013-07-04 05:11:00,71.0,71.0,30.24,SSW,196,0.0,2.0,100,0.00,,BKN008,0.00,VWS V14.01,2013-07-04 09:11:00,
2013-07-04 05:16:00,70.7,70.7,30.24,NW,304,0.0,0.0,100,0.00,,BKN008,0.00,VWS V14.01,2013-07-04 09:16:00,
2013-07-04 05:21:00,70.7,70.7,30.24,NW,304,2.0,2.0,100,0.00,,BKN008,0.00,VWS V14.01,2013-07-04 09:21:00,
2013-07-04 05:26:00,70.9,70.9,30.24,WNW,303,3.0,3.0,100,0.00,,BKN008,0.00,VWS V14.01,2013-07-04 09:26:00,
2013-07-04 05:31:00,70.9,70.9,30.24,WNW,302,1.0,1.0,100,0.00,,BKN008,0.00,VWS V14.01,2013-07-04 09:31:00,
2013-07-04 05:36:00,70.9,70.9,30.24,WNW,303,0.0,1.0,100,0.00,,BKN008,0.00,VWS V14.01,2013-07-04 09:36:00,
2013-07-04 05:41:00,70.9,70.9,30.25,WNW,303,0.0,0.0,100,0.00,,BKN008,0.00,VWS V14.01,2013-07-04 09:41:00,
2013-07-04 05:46:00,70.9,70.9,30.25,WNW,303,0.0,2.0,100,0.00,,BKN008,0.00,VWS V14.01,2013-07-04 09:46:00,
2013-07-04 05:51:00,70.9,70.9,30.25,WNW,303,2.0,3.0,100,0.00,,BKN008,0.00,VWS V14.01,2013-07-04 09:51:00,
2013-07-04 05:56:00,70.9,70.9,30.25,WNW,303,0.0,1.0,100,0.00,,BKN008,0.00,VWS V14.01,2013-07-04 09:56:00,
2013-07-04 06:01:00,70.9,70.9,30.25,WNW,303,1.0,2.0,100,0.00,,BKN008,0.00,VWS V14.01,2013-07-04 10:01:00,
2013-07-04 06:06:00,71.1,71.1,30.25,WNW,299,0.0,0.0,100,0.00,,,0.00,VWS V14.01,2013-07-04 10:06:00,
2013-07-04 06:11:00,71.1,71.1,30.25,WNW,299,0.0,2.0,100,0.00,,,0.00,VWS V14.01,2013-07-04 10:11:00,
2013-07-04 06:16:00,71.1,71.1,30.25,WNW,284,1.0,3.0,100,0.00,,,0.00,VWS V14.01,2013-07-04 10:16:00,
2013-07-04 06:21:00,71.1,71.1,30.25,West,260,2.0,3.0,100,0.00,,,0.00,VWS V14.01,2013-07-04 10:21:00,
2013-07-04 06:26:00,71.1,71.1,30.26,WSW,241,1.0,4.0,100,0.00,,,0.00,VWS V14.01,2013-07-04 10:26:00,
2013-07-04 06:31:00,71.1,71.1,30.26,WSW,239,2.0,3.0,100,0.00,,,0.00,VWS V14.01,2013-07-04 10:31:00,
2013-07-04 06:36:00,71.1,71.1,30.26,SW,230,1.0,3.0,100,0.00,,,0.00,VWS V14.01,2013-07-04 10:36:00,
2013-07-04 06:41:00,71.1,71.1,30.26,SW,230,0.0,0.0,100,0.00,,,0.00,VWS V14.01,2013-07-04 10:41:00,
2013-07-04 06:46:00,71.1,71.1,30.26,SW,222,4.0,6.0,100,0.00,,,0.00,VWS V14.01,2013-07-04 10:46:00,
2013-07-04 06:51:00,71.1,71.1,30.26,SSW,209,0.0,2.0,100,0.00,,,0.00,VWS V14.01,2013-07-04 10:51:00,
2013-07-04 06:56:00,71.1,71.1,30.26,SSW,209,1.0,3.0,100,0.00,,,0.00,VWS V14.01,2013-07-04 10:56:00,
2013-07-04 07:01:00,71.1,71.1,30.26,SSW,209,0.0,2.0,100,0.00,,,0.00,VWS V14.01,2013-07-04 11:01:00,
2013-07-04 07:06:00,71.3,71.3,30.26,SSW,208,4.0,4.0,100,0.00,,,0.00,VWS V14.01,2013-07-04 11:06:00,
2013-07-04 07:11:00,71.3,71.3,30.26,SSW,208,3.0,4.0,100,0.00,,,0.00,VWS V14.01,2013-07-04 11:11:00,
2013-07-04 07:16:00,71.2,71.2,30.26,SSW,208,2.0,2.0,100,0.00,,,0.00,VWS V14.01,2013-07-04 11:16:00,
2013-07-04 07:21:00,71.2,71.2,30.27,SSW,206,0.0,1.0,100,0.00,,,0.00,VWS V14.01,2013-07-04 11:21:00,
2013-07-04 07:26:00,71.5,71.5,30.27,SSW,206,0.0,0.0,100,0.00,,,0.00,VWS V14.01,2013-07-04 11:26:00,
2013-07-04 07:31:00,71.7,71.7,30.27,SSW,207,1.0,2.0,100,0.00,,,0.00,VWS V14.01,2013-07-04 11:31:00,
2013-07-04 07:36:00,71.7,71.7,30.27,SSW,201,0.0,4.0,100,0.00,,,0.00,VWS V14.01,2013-07-04 11:36:00,
2013-07-04 07:41:00,71.4,71.4,30.27,South,188,0.0,4.0,100,0.00,,,0.00,VWS V14.01,2013-07-04 11:41:00,
2013-07-04 07:46:00,71.6,71.6,30.27,South,188,1.0,3.0,100,0.00,,,0.00,VWS V14.01,2013-07-04 11:46:00,
2013-07-04 07:51:00,71.6,71.6,30.27,South,186,2.0,5.0,100,0.00,,,0.00,VWS V14.01,2013-07-04 11:51:00,
2013-07-04 07:56:00,71.6,71.6,30.27,SSW,207,4.0,5.0,100,0.00,,,0.00,VWS V14.01,2013-07-04 11:56:00,
2013-07-04 08:01:00,71.6,71.6,30.27,SSW,207,3.0,4.0,100,0.00,,,0.00,VWS V14.01,2013-07-04 12:01:00,
2013-07-04 08:06:00,71.6,71.6,30.27,SSW,211,5.0,5.0,100,0.00,,OVC006,0.00,VWS V14.01,2013-07-04 12:06:00,
2013-07-04 08:11:00,71.8,71.8,30.27,SW,219,5.0,5.0,100,0.00,,OVC006,0.00,VWS V14.01,2013-07-04 12:11:00,
2013-07-04 08:16:00,71.9,71.9,30.27,SSW,207,1.0,1.0,100,0.00,,OVC006,0.00,VWS V14.01,2013-07-04 12:16:00,
2013-07-04 08:21:00,71.9,71.9,30.27,SSW,195,5.0,7.0,100,0.00,,OVC006,0.00,VWS V14.01,2013-07-04 12:21:00,
2013-07-04 08:26:00,72.3,72.3,30.27,SSW,208,2.0,4.0,100,0.00,,OVC006,0.00,VWS V14.01,2013-07-04 12:26:00,
2013-07-04 08:31:00,72.1,72.1,30.27,SW,219,3.0,6.0,100,0.00,,OVC006,0.00,VWS V14.01,2013-07-04 12:31:00,
2013-07-04 08:36:00,72.3,72.3,30.27,SW,225,3.0,4.0,100,0.00,,OVC006,0.00,VWS V14.01,2013-07-04 12:36:00,
2013-07-04 08:41:00,72.5,72.5,30.27,SW,231,3.0,6.0,100,0.00,,OVC006,0.00,VWS V14.01,2013-07-04 12:41:00,
2013-07-04 08:46:00,72.7,72.7,30.27,SSW,212,2.0,3.0,100,0.00,,OVC006,0.00,VWS V14.01,2013-07-04 12:46:00,
2013-07-04 08:51:00,73.0,73.0,30.27,SW,220,0.0,5.0,100,0.00,,OVC006,0.00,VWS V14.01,2013-07-04 12:51:00,
2013-07-04 08:56:00,72.9,72.9,30.27,SSW,213,5.0,6.0,100,0.00,,OVC006,0.00,VWS V14.01,2013-07-04 12:56:00,
2013-07-04 09:01:00,73.1,73.1,30.27,SSW,195,5.0,6.0,100,0.00,,OVC006,0.00,VWS V14.01,2013-07-04 13:01:00,
2013-07-04 09:06:00,73.1,73.1,30.28,SSW,210,1.0,7.0,100,0.00,,BKN016,0.00,VWS V14.01,2013-07-04 13:06:00,
2013-07-04 09:11:00,73.3,73.0,30.27,West,281,0.0,5.0,99,0.00,,BKN016,0.00,VWS V14.01,2013-07-04 13:11:00,
2013-07-04 09:15:00,73.9,73.6,30.27,SW,219,0.0,5.0,99,0.00,,BKN016,0.00,VWS V14.01,2013-07-04 13:15:00,
2013-07-04 09:20:00,73.8,73.5,30.28,SSW,210,4.0,4.0,99,0.00,,BKN016,0.00,VWS V14.01,2013-07-04 13:20:00,
2013-07-04 09:25:00,73.8,73.2,30.27,SW,227,3.0,7.0,98,0.00,,BKN016,0.00,VWS V14.01,2013-07-04 13:25:00,
2013-07-04 09:30:00,74.3,73.7,30.27,South,171,2.0,4.0,98,0.00,,BKN016,0.00,VWS V14.01,2013-07-04 13:30:00,
2013-07-04 09:35:00,74.4,73.5,30.27,SW,222,4.0,7.0,97,0.00,,BKN016,0.00,VWS V14.01,2013-07-04 13:35:00,
2013-07-04 09:40:00,74.6,73.1,30.27,SW,226,4.0,7.0,95,0.00,,BKN016,0.00,VWS V14.01,2013-07-04 13:40:00,
2013-07-04 09:45:00,74.6,73.1,30.27,SW,216,1.0,3.0,95,0.00,,BKN016,0.00,VWS V14.01,2013-07-04 13:45:00,
2013-07-04 09:50:00,74.9,73.1,30.27,SSW,211,2.0,4.0,94,0.00,,BKN016,0.00,VWS V14.01,2013-07-04 13:50:00,
2013-07-04 09:55:00,75.3,73.1,30.27,SSW,208,1.0,5.0,93,0.00,,BKN016,0.00,VWS V14.01,2013-07-04 13:55:00,
2013-07-04 10:00:00,75.6,73.1,30.27,SSW,208,6.0,7.0,92,0.00,,BKN016,0.00,VWS V14.01,2013-07-04 14:00:00,
2013-07-04 10:05:00,75.6,72.8,30.26,SW,222,3.0,4.0,91,0.00,,SCT010,0.00,VWS V14.01,2013-07-04 14:05:00,
2013-07-04 10:10:00,76.0,73.2,30.27,WSW,250,3.0,7.0,91,0.00,,SCT010,0.00,VWS V14.01,2013-07-04 14:10:00,
2013-07-04 10:15:00,76.0,73.2,30.27,WNW,286,2.0,4.0,91,0.00,,SCT010,0.00,VWS V14.01,2013-07-04 14:15:00,
2013-07-04 10:20:00,76.5,73.3,30.26,SW,221,1.0,5.0,90,0.00,,SCT010,0.00,VWS V14.01,2013-07-04 14:20:00,
2013-07-04 10:25:00,76.7,73.2,30.26,South,189,6.0,6.0,89,0.00,,SCT010,0.00,VWS V14.01,2013-07-04 14:25:00,
2013-07-04 10:30:00,76.8,73.0,30.26,WSW,240,0.0,5.0,88,0.00,,SCT010,0.00,VWS V14.01,2013-07-04 14:30:00,
2013-07-04 10:35:00,77.2,73.4,30.26,West,269,9.0,9.0,88,0.00,,SCT010,0.00,VWS V14.01,2013-07-04 14:35:00,
2013-07-04 10:40:00,77.4,73.2,30.26,South,174,1.0,7.0,87,0.00,,SCT010,0.00,VWS V14.01,2013-07-04 14:40:00,
2013-07-04 10:45:00,77.4,73.2,30.26,SSW,197,4.0,4.0,87,0.00,,SCT010,0.00,VWS V14.01,2013-07-04 14:45:00,
2013-07-04 10:50:00,77.4,72.9,30.26,SW,217,2.0,6.0,86,0.00,,SCT010,0.00,VWS V14.01,2013-07-04 14:50:00,
2013-07-04 10:55:00,77.2,73.0,30.26,SSW,197,7.0,7.0,87,0.00,,SCT010,0.00,VWS V14.01,2013-07-04 14:55:00,
2013-07-04 11:00:00,77.0,73.2,30.26,SW,236,0.0,2.0,88,0.00,,SCT010,0.00,VWS V14.01,2013-07-04 15:00:00,
2013-07-04 11:05:00,77.4,73.2,30.26,SSW,196,0.0,5.0,87,0.00,,SCT010,0.00,VWS V14.01,2013-07-04 15:05:00,
2013-07-04 11:10:00,77.9,73.7,30.25,South,183,3.0,5.0,87,0.00,,SCT010,0.00,VWS V14.01,2013-07-04 15:10:00,
2013-07-04 11:15:00,78.3,73.8,30.25,SSW,203,1.0,4.0,86,0.00,,SCT010,0.00,VWS V14.01,2013-07-04 15:15:00,
2013-07-04 11:20:00,78.8,74.6,30.26,SW,220,4.0,4.0,87,0.00,,SCT010,0.00,VWS V14.01,2013-07-04 15:20:00,
2013-07-04 11:25:00,79.4,74.5,30.25,SW,221,4.0,4.0,85,0.00,,SCT010,0.00,VWS V14.01,2013-07-04 15:25:00,
2013-07-04 11:30:00,79.2,74.3,30.25,SSE,161,4.0,6.0,85,0.00,,SCT010,0.00,VWS V14.01,2013-07-04 15:30:00,
2013-07-04 11:35:00,78.8,74.3,30.25,SW,221,2.0,3.0,86,0.00,,SCT010,0.00,VWS V14.01,2013-07-04 15:35:00,
2013-07-04 11:40:00,78.8,73.9,30.26,SW,214,2.0,5.0,85,0.00,,SCT010,0.00,VWS V14.01,2013-07-04 15:40:00,
2013-07-04 11:45:00,79.0,74.1,30.25,NW,319,1.0,5.0,85,0.00,,SCT010,0.00,VWS V14.01,2013-07-04 15:45:00,
2013-07-04 11:50:00,78.8,73.6,30.25,SSW,211,4.0,8.0,84,0.00,,SCT010,0.00,VWS V14.01,2013-07-04 15:50:00,
2013-07-04 11:55:00,78.6,73.4,30.25,South,179,3.0,9.0,84,0.00,,SCT010,0.00,VWS V14.01,2013-07-04 15:55:00,
2013-07-04 12:00:00,78.3,73.4,30.25,SSW,213,2.0,9.0,85,0.00,,SCT010,0.00,VWS V14.01,2013-07-04 16:00:00,
2013-07-04 12:05:00,78.5,73.6,30.25,ENE,71,2.0,8.0,85,0.00,,SCT012,0.00,VWS V14.01,2013-07-04 16:05:00,
2013-07-04 12:10:00,78.8,73.6,30.25,WSW,251,4.0,10.0,84,0.00,,SCT012,0.00,VWS V14.01,2013-07-04 16:10:00,
2013-07-04 12:15:00,78.8,73.2,30.25,South,179,0.0,6.0,83,0.00,,SCT012,0.00,VWS V14.01,2013-07-04 16:15:00,
2013-07-04 12:20:00,79.2,73.9,30.24,SSW,205,1.0,4.0,84,0.00,,SCT012,0.00,VWS V14.01,2013-07-04 16:20:00,
2013-07-04 12:25:00,79.5,73.9,30.24,South,179,4.0,4.0,83,0.00,,SCT012,0.00,VWS V14.01,2013-07-04 16:25:00,
2013-07-04 12:30:00,79.7,73.7,30.25,SW,222,4.0,4.0,82,0.00,,SCT012,0.00,VWS V14.01,2013-07-04 16:30:00,
2013-07-04 12:35:00,79.9,73.6,30.24,SSW,195,3.0,6.0,81,0.00,,SCT012,0.00,VWS V14.01,2013-07-04 16:35:00,
2013-07-04 12:40:00,79.9,73.6,30.24,SW,216,2.0,7.0,81,0.00,,SCT012,0.00,VWS V14.01,2013-07-04 16:40:00,
2013-07-04 12:45:00,80.1,73.4,30.24,SW,225,5.0,5.0,80,0.00,,SCT012,0.00,VWS V14.01,2013-07-04 16:45:00,
2013-07-04 12:50:00,80.3,73.2,30.24,SSW,202,12.0,12.0,79,0.00,,SCT012,0.00,VWS V14.01,2013-07-04 16:50:00,
2013-07-04 12:55:00,80.3,73.2,30.24,South,191,1.0,15.0,79,0.00,,SCT012,0.00,VWS V14.01,2013-07-04 16:55:00,
2013-07-04 13:00:00,80.3,72.8,30.24,WSW,244,3.0,15.0,78,0.00,,SCT012,0.00,VWS V14.01,2013-07-04 17:00:00,
2013-07-04 13:05:00,80.3,72.8,30.24,SW,224,7.0,8.0,78,0.00,,SCT020,0.00,VWS V14.01,2013-07-04 17:05:00,
2013-07-04 13:10:00,80.3,72.8,30.23,SW,228,7.0,10.0,78,0.00,,SCT020,0.00,VWS V14.01,2013-07-04 17:10:00,
2013-07-04 13:15:00,81.0,73.1,30.23,SW,227,5.0,8.0,77,0.00,,SCT020,0.00,VWS V14.01,2013-07-04 17:15:00,
2013-07-04 13:20:00,81.2,73.3,30.24,West,274,4.0,9.0,77,0.00,,SCT020,0.00,VWS V14.01,2013-07-04 17:20:00,
2013-07-04 13:25:00,81.5,72.8,30.23,WNW,292,2.0,8.0,75,0.00,,SCT020,0.00,VWS V14.01,2013-07-04 17:25:00,
2013-07-04 13:30:00,81.4,72.7,30.23,SSW,207,2.0,7.0,75,0.00,,SCT020,0.00,VWS V14.01,2013-07-04 17:30:00,
2013-07-04 13:35:00,81.8,73.1,30.23,South,188,3.0,6.0,75,0.00,,SCT020,0.00,VWS V14.01,2013-07-04 17:35:00,
2013-07-04 13:40:00,81.9,73.6,30.23,West,265,4.0,13.0,76,0.00,,SCT020,0.00,VWS V14.01,2013-07-04 17:40:00,
2013-07-04 13:45:00,82.1,73.0,30.23,SW,218,2.0,13.0,74,0.00,,SCT020,0.00,VWS V14.01,2013-07-04 17:45:00,
2013-07-04 13:50:00,81.8,72.7,30.22,SSE,159,3.0,10.0,74,0.00,,SCT020,0.00,VWS V14.01,2013-07-04 17:50:00,
2013-07-04 13:55:00,81.8,72.7,30.22,SW,225,4.0,7.0,74,0.00,,SCT020,0.00,VWS V14.01,2013-07-04 17:55:00,
2013-07-04 14:00:00,82.3,73.6,30.22,SSE,156,3.0,6.0,75,0.00,,SCT020,0.00,VWS V14.01,2013-07-04 18:00:00,
2013-07-04 14:05:00,82.3,72.8,30.22,SW,219,1.0,7.0,73,0.00,,SCT020,0.00,VWS V14.01,2013-07-04 18:05:00,
2013-07-04 14:10:00,82.5,71.7,30.21,SW,220,4.0,7.0,70,0.00,,SCT020,0.00,VWS V14.01,2013-07-04 18:10:00,
2013-07-04 14:15:00,82.7,72.8,30.21,SSE,162,4.0,6.0,72,0.00,,SCT020,0.00,VWS V14.01,2013-07-04 18:15:00,
2013-07-04 14:20:00,82.7,71.9,30.21,WSW,244,3.0,9.0,70,0.00,,SCT020,0.00,VWS V14.01,2013-07-04 18:20:00,
2013-07-04 14:25:00,82.5,71.3,30.22,SSW,203,4.0,15.0,69,0.00,,SCT020,0.00,VWS V14.01,2013-07-04 18:25:00,
2013-07-04 14:30:00,82.7,71.9,30.21,SSW,207,8.0,11.0,70,0.00,,SCT020,0.00,VWS V14.01,2013-07-04 18:30:00,
2013-07-04 14:35:00,82.7,71.5,30.22,SW,227,8.0,9.0,69,0.00,,SCT020,0.00,VWS V14.01,2013-07-04 18:35:00,
2013-07-04 14:40:00,82.9,72.1,30.21,SSW,210,2.0,5.0,70,0.00,,SCT020,0.00,VWS V14.01,2013-07-04 18:40:00,
2013-07-04 14:45:00,82.9,71.7,30.21,WNW,293,6.0,7.0,69,0.00,,SCT020,0.00,VWS V14.01,2013-07-04 18:45:00,
2013-07-04 14:50:00,82.8,72.0,30.21,South,182,0.0,6.0,70,0.00,,SCT020,0.00,VWS V14.01,2013-07-04 18:50:00,
2013-07-04 14:55:00,82.7,71.9,30.21,South,191,4.0,6.0,70,0.00,,SCT020,0.00,VWS V14.01,2013-07-04 18:55:00,
2013-07-04 15:00:00,82.7,72.3,30.21,SSW,203,8.0,9.0,71,0.00,,SCT020,0.00,VWS V14.01,2013-07-04 19:00:00,
2013-07-04 15:05:00,82.7,72.3,30.21,SSW,207,6.0,9.0,71,0.00,,SCT035,0.00,VWS V14.01,2013-07-04 19:05:00,
2013-07-04 15:10:00,83.1,72.7,30.21,SSW,194,8.0,8.0,71,0.00,,SCT035,0.00,VWS V14.01,2013-07-04 19:10:00,
2013-07-04 15:15:00,82.9,72.5,30.21,WSW,238,10.0,10.0,71,0.00,,SCT035,0.00,VWS V14.01,2013-07-04 19:15:00,
2013-07-04 15:20:00,83.1,72.7,30.21,SW,224,6.0,12.0,71,0.00,,SCT035,0.00,VWS V14.01,2013-07-04 19:20:00,
2013-07-04 15:25:00,82.9,72.1,30.20,South,169,0.0,6.0,70,0.00,,SCT035,0.00,VWS V14.01,2013-07-04 19:25:00,
2013-07-04 15:30:00,83.4,72.6,30.20,South,176,0.0,4.0,70,0.00,,SCT035,0.00,VWS V14.01,2013-07-04 19:30:00,
2013-07-04 15:35:00,83.1,72.3,30.20,SW,231,10.0,10.0,70,0.00,,SCT035,0.00,VWS V14.01,2013-07-04 19:35:00,
2013-07-04 15:40:00,83.3,72.9,30.20,WSW,248,2.0,3.0,71,0.00,,SCT035,0.00,VWS V14.01,2013-07-04 19:40:00,
2013-07-04 15:45:00,83.2,72.4,30.20,SW,234,0.0,11.0,70,0.00,,SCT035,0.00,VWS V14.01,2013-07-04 19:45:00,
2013-07-04 15:50:00,83.3,72.5,30.20,SW,217,6.0,9.0,70,0.00,,SCT035,0.00,VWS V14.01,2013-07-04 19:50:00,
2013-07-04 15:55:00,83.1,72.3,30.20,South,183,3.0,9.0,70,0.00,,SCT035,0.00,VWS V14.01,2013-07-04 19:55:00,
2013-07-04 16:00:00,83.3,72.5,30.20,West,274,3.0,7.0,70,0.00,,SCT035,0.00,VWS V14.01,2013-07-04 20:00:00,
2013-07-04 16:05:00,83.5,72.7,30.20,SSW,196,2.0,12.0,70,0.00,,SCT035,0.00,VWS V14.01,2013-07-04 20:05:00,
2013-07-04 16:10:00,83.1,72.3,30.19,SSW,198,9.0,11.0,70,0.00,,SCT035,0.00,VWS V14.01,2013-07-04 20:10:00,
2013-07-04 16:15:00,83.2,72.8,30.20,SW,221,4.0,11.0,71,0.00,,SCT035,0.00,VWS V14.01,2013-07-04 20:15:00,
2013-07-04 16:20:00,83.2,72.8,30.19,SSW,193,9.0,10.0,71,0.00,,SCT035,0.00,VWS V14.01,2013-07-04 20:20:00,
2013-07-04 16:25:00,83.7,73.7,30.19,South,182,7.0,10.0,72,0.00,,SCT035,0.00,VWS V14.01,2013-07-04 20:25:00,
2013-07-04 16:30:00,83.1,73.1,30.20,SW,225,8.0,8.0,72,0.00,,SCT035,0.00,VWS V14.01,2013-07-04 20:30:00,
2013-07-04 16:35:00,82.8,73.3,30.19,South,187,0.0,4.0,73,0.00,,SCT035,0.00,VWS V14.01,2013-07-04 20:35:00,
2013-07-04 16:40:00,83.1,74.0,30.20,WSW,237,8.0,10.0,74,0.00,,SCT035,0.00,VWS V14.01,2013-07-04 20:40:00,
2013-07-04 16:45:00,82.5,73.4,30.19,WSW,257,2.0,11.0,74,0.00,,SCT035,0.00,VWS V14.01,2013-07-04 20:45:00,
2013-07-04 16:50:00,82.2,73.5,30.19,WSW,249,3.0,3.0,75,0.00,,SCT035,0.00,VWS V14.01,2013-07-04 20:50:00,
2013-07-04 16:55:00,82.2,73.9,30.29,SSW,203,4.0,5.0,76,0.00,,SCT035,0.00,VWS V14.01,2013-07-04 20:55:00,
2013-07-04 17:00:00,82.2,73.9,30.19,South,176,7.0,7.0,76,0.00,,SCT035,0.00,VWS V14.01,2013-07-04 21:00:00,
2013-07-04 17:05:00,81.8,73.1,30.19,WSW,246,3.0,7.0,75,0.00,,FEW045,0.00,VWS V14.01,2013-07-04 21:05:00,
2013-07-04 17:10:00,81.2,72.9,30.19,WSW,255,7.0,7.0,76,0.00,,FEW045,0.00,VWS V14.01,2013-07-04 21:10:00,
2013-07-04 17:15:00,81.4,73.5,30.19,SSE,154,10.0,12.0,77,0.00,,FEW045,0.00,VWS V14.01,2013-07-04 21:15:00,
2013-07-04 17:20:00,81.2,73.3,30.18,WSW,246,3.0,8.0,77,0.00,,FEW045,0.00,VWS V14.01,2013-07-04 21:20:00,
2013-07-04 17:25:00,81.2,73.7,30.19,South,190,3.0,5.0,78,0.00,,FEW045,0.00,VWS V14.01,2013-07-04 21:25:00,
2013-07-04 17:30:00,81.1,73.2,30.19,SSW,195,4.0,6.0,77,0.00,,FEW045,0.00,VWS V14.01,2013-07-04 21:30:00,
2013-07-04 17:35:00,80.7,73.2,30.19,WSW,251,4.0,7.0,78,0.00,,FEW045,0.00,VWS V14.01,2013-07-04 21:35:00,
2013-07-04 17:40:00,80.3,72.8,30.19,SSW,213,4.0,7.0,78,0.00,,FEW045,0.00,VWS V14.01,2013-07-04 21:40:00,
2013-07-04 17:45:00,80.3,73.2,30.19,SW,215,6.0,11.0,79,0.00,,FEW045,0.00,VWS V14.01,2013-07-04 21:45:00,
2013-07-04 17:50:00,80.1,73.0,30.19,South,170,1.0,6.0,79,0.00,,FEW045,0.00,VWS V14.01,2013-07-04 21:50:00,
2013-07-04 17:55:00,79.9,73.2,30.19,SW,220,4.0,10.0,80,0.00,,FEW045,0.00,VWS V14.01,2013-07-04 21:55:00,
2013-07-04 18:00:00,80.1,73.8,30.19,SW,220,5.0,5.0,81,0.00,,FEW045,0.00,VWS V14.01,2013-07-04 22:00:00,
2013-07-04 18:05:00,79.8,73.4,30.19,SSW,211,1.0,9.0,81,0.00,,FEW045,0.00,VWS V14.01,2013-07-04 22:05:00,
2013-07-04 18:10:00,79.7,73.4,30.19,South,190,3.0,5.0,81,0.00,,FEW045,0.00,VWS V14.01,2013-07-04 22:10:00,
2013-07-04 18:15:00,80.0,73.7,30.19,WSW,256,0.0,5.0,81,0.00,,FEW045,0.00,VWS V14.01,2013-07-04 22:15:00,
2013-07-04 18:20:00,79.8,73.4,30.19,South,171,1.0,4.0,81,0.00,,FEW045,0.00,VWS V14.01,2013-07-04 22:20:00,
2013-07-04 18:25:00,79.6,73.3,30.19,South,173,3.0,10.0,81,0.00,,FEW045,0.00,VWS V14.01,2013-07-04 22:25:00,
2013-07-04 18:30:00,79.4,73.4,30.20,West,259,5.0,7.0,82,0.00,,FEW045,0.00,VWS V14.01,2013-07-04 22:30:00,
2013-07-04 18:35:00,79.0,73.0,30.19,SSW,198,7.0,7.0,82,0.00,,FEW045,0.00,VWS V14.01,2013-07-04 22:35:00,
2013-07-04 18:40:00,78.7,73.5,30.19,SSW,213,2.0,5.0,84,0.00,,FEW045,0.00,VWS V14.01,2013-07-04 22:40:00,
2013-07-04 18:45:00,78.5,73.3,30.19,WSW,241,1.0,5.0,84,0.00,,FEW045,0.00,VWS V14.01,2013-07-04 22:45:00,
2013-07-04 18:50:00,78.3,72.7,30.19,West,263,2.0,4.0,83,0.00,,FEW045,0.00,VWS V14.01,2013-07-04 22:50:00,
2013-07-04 18:55:00,78.1,72.9,30.19,SW,229,4.0,6.0,84,0.00,,FEW045,0.00,VWS V14.01,2013-07-04 22:55:00,
2013-07-04 19:00:00,77.9,72.7,30.20,SW,219,5.0,5.0,84,0.00,,FEW045,0.00,VWS V14.01,2013-07-04 23:00:00,
2013-07-04 19:05:00,77.8,72.6,30.20,West,260,0.0,5.0,84,0.00,,FEW045,0.00,VWS V14.01,2013-07-04 23:05:00,
2013-07-04 19:10:00,77.6,72.7,30.20,WSW,240,4.0,7.0,85,0.00,,FEW045,0.00,VWS V14.01,2013-07-04 23:10:00,
2013-07-04 19:15:00,77.4,72.2,30.20,SW,222,1.0,8.0,84,0.00,,FEW045,0.00,VWS V14.01,2013-07-04 23:15:00,
2013-07-04 19:20:00,77.4,72.5,30.19,SW,232,3.0,6.0,85,0.00,,FEW045,0.00,VWS V14.01,2013-07-04 23:20:00,
2013-07-04 19:25:00,77.2,72.3,30.20,SSW,198,1.0,3.0,85,0.00,,FEW045,0.00,VWS V14.01,2013-07-04 23:25:00,
2013-07-04 19:30:00,77.1,72.2,30.20,South,171,2.0,3.0,85,0.00,,FEW045,0.00,VWS V14.01,2013-07-04 23:30:00,
2013-07-04 19:35:00,76.9,72.1,30.20,SSW,197,4.0,5.0,85,0.00,,FEW045,0.00,VWS V14.01,2013-07-04 23:35:00,
2013-07-04 19:40:00,76.7,71.9,30.19,SSW,196,7.0,7.0,85,0.00,,FEW045,0.00,VWS V14.01,2013-07-04 23:40:00,
2013-07-04 19:45:00,76.5,71.7,30.20,SSE,164,5.0,5.0,85,0.00,,FEW045,0.00,VWS V14.01,2013-07-04 23:45:00,
2013-07-04 19:50:00,76.4,71.9,30.19,SW,235,2.0,3.0,86,0.00,,FEW045,0.00,VWS V14.01,2013-07-04 23:50:00,
2013-07-04 19:55:00,76.2,71.7,30.19,SSE,164,5.0,7.0,86,0.00,,FEW045,0.00,VWS V14.01,2013-07-04 23:55:00,
2013-07-04 20:00:00,76.0,71.5,30.20,SSW,210,3.0,6.0,86,0.00,,FEW045,0.00,VWS V14.01,2013-07-05 00:00:00,
2013-07-04 20:05:00,76.1,71.9,30.20,SSW,196,0.0,3.0,87,0.00,,CLR,0.00,VWS V14.01,2013-07-05 00:05:00,
2013-07-04 20:10:00,76.0,72.2,30.19,SW,233,1.0,4.0,88,0.00,,CLR,0.00,VWS V14.01,2013-07-05 00:10:00,
2013-07-04 20:15:00,75.3,71.5,30.19,SSW,203,5.0,5.0,88,0.00,,CLR,0.00,VWS V14.01,2013-07-05 00:15:00,
2013-07-04 20:20:00,75.1,71.6,30.20,SSW,201,4.0,5.0,89,0.00,,CLR,0.00,VWS V14.01,2013-07-05 00:20:00,
2013-07-04 20:25:00,74.9,71.4,30.20,South,174,1.0,3.0,89,0.00,,CLR,0.00,VWS V14.01,2013-07-05 00:25:00,
2013-07-04 20:30:00,74.8,71.3,30.20,SSE,165,4.0,7.0,89,0.00,,CLR,0.00,VWS V14.01,2013-07-05 00:30:00,
2013-07-04 20:35:00,74.6,71.2,30.20,SW,235,3.0,6.0,89,0.00,,CLR,0.00,VWS V14.01,2013-07-05 00:35:00,
2013-07-04 20:40:00,74.7,71.2,30.20,SW,216,4.0,4.0,89,0.00,,CLR,0.00,VWS V14.01,2013-07-05 00:40:00,
2013-07-04 20:45:00,74.3,71.2,30.20,SW,233,0.0,5.0,90,0.00,,CLR,0.00,VWS V14.01,2013-07-05 00:45:00,
2013-07-04 20:50:00,74.1,71.0,30.21,SSW,196,2.0,4.0,90,0.00,,CLR,0.00,VWS V14.01,2013-07-05 00:50:00,
2013-07-04 20:55:00,74.1,71.0,30.20,SSE,166,0.0,3.0,90,0.00,,CLR,0.00,VWS V14.01,2013-07-05 00:55:00,
2013-07-04 21:00:00,73.9,71.1,30.21,South,181,4.0,5.0,91,0.00,,CLR,0.00,VWS V14.01,2013-07-05 01:00:00,
2013-07-04 21:05:00,73.8,71.0,30.21,SSW,212,0.0,3.0,91,0.00,,SCT250,0.00,VWS V14.01,2013-07-05 01:05:00,
2013-07-04 21:10:00,73.6,71.1,30.21,South,191,3.0,4.0,92,0.00,,SCT250,0.00,VWS V14.01,2013-07-05 01:10:00,
2013-07-04 21:15:00,73.6,70.8,30.21,SW,229,2.0,2.0,91,0.00,,SCT250,0.00,VWS V14.01,2013-07-05 01:15:00,
2013-07-04 21:20:00,73.4,70.9,30.21,SW,226,3.0,4.0,92,0.00,,SCT250,0.00,VWS V14.01,2013-07-05 01:20:00,
2013-07-04 21:25:00,73.3,70.8,30.21,SW,225,2.0,3.0,92,0.00,,SCT250,0.00,VWS V14.01,2013-07-05 01:25:00,
2013-07-04 21:30:00,73.3,70.8,30.22,SSW,199,0.0,3.0,92,0.00,,SCT250,0.00,VWS V14.01,2013-07-05 01:30:00,
2013-07-04 21:35:00,73.1,70.6,30.21,SSW,208,1.0,3.0,92,0.00,,SCT250,0.00,VWS V14.01,2013-07-05 01:35:00,
2013-07-04 21:40:00,73.1,70.6,30.22,South,178,0.0,4.0,92,0.00,,SCT250,0.00,VWS V14.01,2013-07-05 01:40:00,
2013-07-04 21:45:00,73.1,70.6,30.22,SSW,204,2.0,4.0,92,0.00,,SCT250,0.00,VWS V14.01,2013-07-05 01:45:00,
2013-07-04 21:50:00,72.9,70.4,30.22,SSW,208,2.0,3.0,92,0.00,,SCT250,0.00,VWS V14.01,2013-07-05 01:50:00,
2013-07-04 21:55:00,72.8,70.3,30.22,South,189,4.0,5.0,92,0.00,,SCT250,0.00,VWS V14.01,2013-07-05 01:55:00,
2013-07-04 22:00:00,72.8,70.3,30.22,SSW,195,3.0,4.0,92,0.00,,SCT250,0.00,VWS V14.01,2013-07-05 02:00:00,
2013-07-04 22:05:00,72.8,70.3,30.22,South,186,3.0,7.0,92,0.00,,CLR,0.00,VWS V14.01,2013-07-05 02:05:00,
2013-07-04 22:10:00,72.8,70.3,30.21,South,181,4.0,4.0,92,0.00,,CLR,0.00,VWS V14.01,2013-07-05 02:10:00,
2013-07-04 22:15:00,72.8,70.3,30.21,SW,224,3.0,4.0,92,0.00,,CLR,0.00,VWS V14.01,2013-07-05 02:15:00,
2013-07-04 22:20:00,72.6,70.5,30.21,SSW,197,4.0,4.0,93,0.00,,CLR,0.00,VWS V14.01,2013-07-05 02:20:00,
2013-07-04 22:25:00,72.6,70.5,30.21,South,189,1.0,4.0,93,0.00,,CLR,0.00,VWS V14.01,2013-07-05 02:25:00,
2013-07-04 22:30:00,72.4,69.9,30.21,SW,234,0.0,4.0,92,0.00,,CLR,0.00,VWS V14.01,2013-07-05 02:30:00,
2013-07-04 22:35:00,72.4,70.3,30.21,West,270,1.0,6.0,93,0.00,,CLR,0.00,VWS V14.01,2013-07-05 02:35:00,
2013-07-04 22:40:00,72.3,70.2,30.22,SSW,204,3.0,7.0,93,0.00,,CLR,0.00,VWS V14.01,2013-07-05 02:40:00,
2013-07-04 22:45:00,72.3,70.2,30.22,South,184,1.0,7.0,93,0.00,,CLR,0.00,VWS V14.01,2013-07-05 02:45:00,
2013-07-04 22:50:00,72.3,70.2,30.22,South,183,0.0,2.0,93,0.00,,CLR,0.00,VWS V14.01,2013-07-05 02:50:00,
2013-07-04 22:55:00,72.1,70.3,30.22,SSW,213,3.0,4.0,94,0.00,,CLR,0.00,VWS V14.01,2013-07-05 02:55:00,
2013-07-04 23:00:00,72.1,70.3,30.22,South,186,1.0,3.0,94,0.00,,CLR,0.00,VWS V14.01,2013-07-05 03:00:00,
2013-07-04 23:05:00,71.9,70.1,30.22,WSW,252,0.0,3.0,94,0.00,,CLR,0.00,VWS V14.01,2013-07-05 03:05:00,
2013-07-04 23:10:00,71.9,70.1,30.22,South,179,1.0,4.0,94,0.00,,CLR,0.00,VWS V14.01,2013-07-05 03:10:00,
2013-07-04 23:15:00,71.9,69.8,30.21,SW,231,2.0,6.0,93,0.00,,CLR,0.00,VWS V14.01,2013-07-05 03:15:00,
2013-07-04 23:20:00,71.7,69.9,30.21,SSW,193,2.0,3.0,94,0.00,,CLR,0.00,VWS V14.01,2013-07-05 03:20:00,
2013-07-04 23:25:00,71.7,69.9,30.22,SSW,194,0.0,2.0,94,0.00,,CLR,0.00,VWS V14.01,2013-07-05 03:25:00,
2013-07-04 23:30:00,71.8,70.0,30.22,SSW,192,0.0,1.0,94,0.00,,CLR,0.00,VWS V14.01,2013-07-05 03:30:00,
2013-07-04 23:35:00,71.6,69.8,30.22,SSW,197,0.0,1.0,94,0.00,,CLR,0.00,VWS V14.01,2013-07-05 03:35:00,
2013-07-04 23:40:00,71.4,69.9,30.22,SSW,198,1.0,1.0,95,0.00,,CLR,0.00,VWS V14.01,2013-07-05 03:40:00,
2013-07-04 23:45:00,71.4,69.9,30.22,SSW,193,1.0,2.0,95,0.00,,CLR,0.00,VWS V14.01,2013-07-05 03:45:00,
2013-07-04 23:50:00,71.5,70.0,30.22,South,191,0.0,1.0,95,0.00,,CLR,0.00,VWS V14.01,2013-07-05 03:50:00,
2013-07-04 23:55:00,71.3,69.8,30.22,South,191,0.0,0.0,95,0.00,,CLR,0.00,VWS V14.01,2013-07-05 03:55:00,